Forside
METAR-TAF:

METAR-TAF

Lufthavne :

Ashland, Wisconsin, USA

Breddekreds: 46-32-59N, længdekreds: 090-55-06W, højde: 251 m

Aktuelle vejr

Denne rapport blev lavet for 36 minutter siden, kl. 12:53 UTC
Vind 4 kt fra vestsydvest
Temperatur 5°C
Fugtighed 65%
Tryk 1029 hPa
Sigt: 16.1 km
skyfri

METAR: KASX 111253Z AUTO 25004KT 10SM CLR 05/M01 A3040 RMK AO2 SLP301 T00501011

Tid: 08:29 (13:29 UTC)


TAF: fraværende

Vejrobservationer og prognoser fra mere end 4000 lufthavne (METAR og TAF).

De gule og røde prikker repræsenterer de meteorologiske stationer.

Flyt musen over at se navnet på stationen.

Så klik over at se vejr observationer og prognoser.

At skifte det kort: Klik på de grønne knapper med et sort kors for at zoome ind; på den grønne knap med en bindestreg for at zoome ud; eller på de grønne pile for tilstødende kort.


METAR-TAF: